Terminal Aerodrome Forecast
Issued by NWS

Home | Current Version | Previous Version | Graphics & Text | Print | Product List | Glossary On
Versions: 1 2 3 4 5 6 7 8 9 10 11 12 13 14 15 16 17
000
FTUS43 KABR 250500
TAFPIR
TAF
KPIR 250537Z 2506/2606 15007KT P6SM BKN100
     FM250900 03006KT P6SM -SN SCT025 BKN040 OVC060
     FM251400 01014KT 2SM -SN BR OVC020
     FM251700 36018G25KT 2SM -SN BLSN OVC015
     FM260100 34015G25KT 2SM BLSN OVC015=

USA.gov is the U.S. government's official web portal to all federal, state and local government web resources and services.